createdAt,value
2022-12-18T00:02:01.607Z,61.33
2022-12-18T00:04:31.030Z,63.72
2022-12-18T00:07:04.144Z,64.20
2022-12-18T00:09:39.521Z,58.38
2022-12-18T00:14:50.432Z,61.33
2022-12-18T00:17:18.851Z,61.92
2022-12-18T00:19:52.621Z,71.35
2022-12-18T00:22:20.422Z,64.00
2022-12-18T00:24:48.515Z,59.80
2022-12-18T00:27:29.025Z,55.58
2022-12-18T00:29:59.541Z,54.80
2022-12-18T00:32:30.561Z,56.05
2022-12-18T00:35:01.364Z,56.20
2022-12-18T00:37:30.941Z,60.58
2022-12-18T00:40:10.665Z,61.72
2022-12-18T00:45:46.125Z,56.67
2022-12-18T00:50:46.126Z,58.97
2022-12-18T00:53:25.131Z,55.17
2022-12-18T00:55:52.885Z,59.20
2022-12-18T00:58:21.685Z,58.78
2022-12-18T01:00:52.903Z,62.38
2022-12-18T01:03:23.428Z,64.82
2022-12-18T01:06:06.127Z,55.35
2022-12-18T01:08:36.912Z,59.47
2022-12-18T01:11:15.758Z,51.50
2022-12-18T01:13:46.670Z,58.22
2022-12-18T01:16:16.219Z,58.28
2022-12-18T01:18:52.443Z,74.63
2022-12-18T01:21:21.401Z,52.75
2022-12-18T01:23:53.600Z,57.55
2022-12-18T01:26:22.111Z,61.75
2022-12-18T01:28:52.855Z,54.30
2022-12-18T01:31:25.613Z,55.53
2022-12-18T01:34:07.009Z,56.35
2022-12-18T01:36:38.717Z,52.63
2022-12-18T01:39:12.282Z,51.95
2022-12-18T01:42:04.499Z,52.42
2022-12-18T01:45:01.179Z,52.17
2022-12-18T01:47:36.310Z,58.65
2022-12-18T01:50:18.891Z,53.97
2022-12-18T01:52:57.908Z,52.70
2022-12-18T01:55:41.483Z,56.53
2022-12-18T01:58:09.526Z,61.90
2022-12-18T02:00:37.442Z,57.15
2022-12-18T02:03:05.783Z,56.13
2022-12-18T02:06:07.864Z,52.17
2022-12-18T02:09:11.884Z,56.47
2022-12-18T02:11:52.733Z,54.75
2022-12-18T02:14:41.943Z,48.70
2022-12-18T02:17:22.287Z,53.10
2022-12-18T02:20:17.904Z,49.75
2022-12-18T02:23:07.252Z,55.90
2022-12-18T02:26:20.530Z,52.35
2022-12-18T02:29:11.893Z,51.35
2022-12-18T02:31:50.978Z,51.38
2022-12-18T02:34:20.847Z,49.22
2022-12-18T02:36:55.728Z,49.97
2022-12-18T02:39:27.740Z,51.50
2022-12-18T02:42:09.069Z,55.30
2022-12-18T02:44:47.348Z,50.95
2022-12-18T02:47:32.326Z,50.78
2022-12-18T02:50:35.240Z,46.83
2022-12-18T02:53:39.591Z,47.35
2022-12-18T02:56:17.575Z,49.10
2022-12-18T02:59:14.994Z,50.83
2022-12-18T03:01:56.558Z,45.70
2022-12-18T03:04:33.607Z,42.70
2022-12-18T03:07:16.593Z,48.65
2022-12-18T03:09:49.637Z,52.63
2022-12-18T03:12:32.096Z,45.13
2022-12-18T03:15:09.544Z,49.33
2022-12-18T03:17:44.799Z,45.97
2022-12-18T03:20:18.547Z,51.47
2022-12-18T03:22:55.346Z,49.63
2022-12-18T03:25:31.548Z,43.58
2022-12-18T03:28:03.687Z,52.30
2022-12-18T03:30:34.971Z,45.70
2022-12-18T03:33:46.266Z,48.13
2022-12-18T03:36:16.199Z,42.25
2022-12-18T03:38:43.952Z,46.85
2022-12-18T03:41:29.556Z,42.58
2022-12-18T03:45:06.245Z,41.15
2022-12-18T03:48:11.204Z,47.10
2022-12-18T03:51:00.675Z,49.15
2022-12-18T03:53:53.599Z,43.00
2022-12-18T03:56:28.723Z,39.88
2022-12-18T03:58:59.265Z,37.00
2022-12-18T04:01:42.797Z,43.45
2022-12-18T04:04:23.901Z,43.17
2022-12-18T04:06:56.084Z,40.13
2022-12-18T04:09:25.696Z,43.45
2022-12-18T04:11:55.367Z,45.47
2022-12-18T04:14:28.049Z,43.47
2022-12-18T04:17:15.050Z,41.75
2022-12-18T04:19:48.812Z,45.10
2022-12-18T04:22:23.712Z,45.13
2022-12-18T04:25:09.294Z,47.05
2022-12-18T04:27:41.752Z,46.58
2022-12-18T04:30:14.306Z,40.60
2022-12-18T04:32:46.480Z,40.35
2022-12-18T04:35:17.070Z,44.40
2022-12-18T04:37:50.817Z,40.40
2022-12-18T04:40:18.794Z,46.88
2022-12-18T04:42:49.184Z,43.75
2022-12-18T04:45:19.908Z,46.38
2022-12-18T04:47:48.063Z,44.75
2022-12-18T04:50:16.110Z,43.78
2022-12-18T04:52:47.080Z,45.92
2022-12-18T04:55:15.115Z,48.70
2022-12-18T04:57:43.385Z,44.78
2022-12-18T05:00:14.630Z,47.30
2022-12-18T05:02:46.037Z,50.28
2022-12-18T05:05:14.570Z,43.28
2022-12-18T05:07:42.612Z,45.28
2022-12-18T05:10:19.678Z,50.33
2022-12-18T05:13:00.502Z,45.22
2022-12-18T05:15:35.966Z,48.55
2022-12-18T05:18:06.026Z,47.38
2022-12-18T05:20:36.576Z,43.80
2022-12-18T05:23:04.559Z,42.15
2022-12-18T05:25:33.854Z,40.20
2022-12-18T05:28:06.325Z,48.60
2022-12-18T05:30:35.536Z,44.60
2022-12-18T05:33:07.925Z,46.83
2022-12-18T05:35:35.972Z,43.05
2022-12-18T05:38:03.918Z,52.13
2022-12-18T05:40:32.254Z,42.75
2022-12-18T05:43:06.251Z,40.65
2022-12-18T05:45:39.772Z,44.65
2022-12-18T05:48:10.485Z,47.40
2022-12-18T05:50:41.595Z,49.15
2022-12-18T05:53:37.436Z,41.65
2022-12-18T05:56:11.896Z,43.55
2022-12-18T05:58:40.586Z,46.58
2022-12-18T06:01:36.244Z,45.13
2022-12-18T06:04:06.569Z,37.00
2022-12-18T06:06:39.145Z,39.03
2022-12-18T06:09:09.511Z,41.80
2022-12-18T06:14:18.431Z,38.50
2022-12-18T06:16:51.456Z,41.92
2022-12-18T06:19:19.487Z,46.42
2022-12-18T06:22:04.519Z,43.92
2022-12-18T06:24:33.840Z,47.70
2022-12-18T06:27:02.812Z,44.45
2022-12-18T06:29:40.957Z,42.35
2022-12-18T06:32:10.182Z,45.63
2022-12-18T06:34:40.536Z,42.45
2022-12-18T06:37:08.479Z,47.65
2022-12-18T06:39:39.431Z,40.35
2022-12-18T06:42:08.560Z,42.75
2022-12-18T06:44:42.243Z,47.33
2022-12-18T06:47:11.455Z,41.70
2022-12-18T06:49:42.472Z,39.47
2022-12-18T06:52:10.595Z,43.97
2022-12-18T06:54:41.905Z,44.78
2022-12-18T06:57:22.098Z,44.95
2022-12-18T06:59:50.530Z,43.28
2022-12-18T07:02:19.220Z,40.25
2022-12-18T07:04:55.028Z,42.47
2022-12-18T07:07:29.272Z,37.30
2022-12-18T07:09:57.656Z,47.90
2022-12-18T07:12:25.802Z,44.72
2022-12-18T07:14:57.184Z,45.63
2022-12-18T07:17:25.692Z,41.72
2022-12-18T07:19:57.902Z,42.05
2022-12-18T07:22:27.247Z,43.63
2022-12-18T07:25:06.313Z,45.13
2022-12-18T07:27:34.356Z,44.53
2022-12-18T07:30:10.875Z,44.67
2022-12-18T07:32:52.361Z,45.20
2022-12-18T07:35:24.797Z,45.88
2022-12-18T07:37:56.442Z,42.90
2022-12-18T07:40:25.263Z,42.88
2022-12-18T07:42:59.040Z,38.60
2022-12-18T07:45:29.289Z,43.22
2022-12-18T07:48:11.919Z,35.65
2022-12-18T07:50:41.027Z,41.75
2022-12-18T07:53:10.177Z,40.37
2022-12-18T07:56:05.395Z,44.28
2022-12-18T07:58:37.993Z,42.05
2022-12-18T08:01:22.014Z,45.10
2022-12-18T08:03:58.910Z,43.22
2022-12-18T08:06:27.167Z,42.05
2022-12-18T08:08:57.195Z,41.05
2022-12-18T08:11:38.809Z,44.60
2022-12-18T08:14:15.317Z,42.90
2022-12-18T08:16:52.469Z,38.45
2022-12-18T08:19:28.366Z,49.40
2022-12-18T08:22:02.723Z,42.30
2022-12-18T08:24:33.947Z,44.65
2022-12-18T08:29:50.913Z,46.10
2022-12-18T08:32:19.144Z,40.58
2022-12-18T08:34:47.113Z,40.22
2022-12-18T08:37:17.892Z,41.28
2022-12-18T08:39:46.903Z,45.60
2022-12-18T08:42:34.264Z,38.28
2022-12-18T08:47:40.306Z,40.50
2022-12-18T08:50:16.165Z,43.15
2022-12-18T08:52:45.228Z,39.22
2022-12-18T08:55:13.109Z,40.28
2022-12-18T08:57:41.014Z,44.35
2022-12-18T09:00:14.890Z,42.17
2022-12-18T09:02:47.403Z,40.53
2022-12-18T09:05:20.918Z,44.38
2022-12-18T09:07:49.522Z,42.80
2022-12-18T09:13:49.543Z,39.05
2022-12-18T09:16:32.241Z,42.78
2022-12-18T09:19:11.206Z,37.00
2022-12-18T09:21:47.788Z,38.90
2022-12-18T09:24:40.943Z,43.67
2022-12-18T09:27:09.303Z,44.88
2022-12-18T09:29:38.517Z,38.60
2022-12-18T09:32:09.360Z,40.88
2022-12-18T09:34:39.722Z,40.22
2022-12-18T09:37:07.773Z,40.58
2022-12-18T09:39:41.675Z,44.15
2022-12-18T09:42:21.591Z,43.53
2022-12-18T09:44:59.459Z,43.90
2022-12-18T09:47:40.476Z,38.22
2022-12-18T09:52:50.725Z,37.60
2022-12-18T09:55:37.572Z,37.42
2022-12-18T09:58:15.088Z,39.70
2022-12-18T10:00:43.445Z,38.25
2022-12-18T10:03:15.109Z,38.22
2022-12-18T10:06:05.405Z,38.50
2022-12-18T10:08:49.670Z,39.00
2022-12-18T10:11:42.688Z,33.30
2022-12-18T10:14:30.844Z,41.08
2022-12-18T10:17:27.337Z,35.83
2022-12-18T10:20:04.092Z,41.42
2022-12-18T10:22:45.799Z,37.75
2022-12-18T10:25:31.764Z,36.92
2022-12-18T10:28:09.390Z,41.00
2022-12-18T10:30:42.443Z,44.25
2022-12-18T10:33:17.131Z,37.78
2022-12-18T10:35:49.587Z,38.22
2022-12-18T10:38:29.523Z,35.88
2022-12-18T10:40:58.670Z,37.00
2022-12-18T10:43:31.129Z,34.53
2022-12-18T10:46:22.943Z,36.20
2022-12-18T10:48:57.277Z,37.15
2022-12-18T10:51:37.538Z,33.70
2022-12-18T10:54:14.733Z,35.38
2022-12-18T10:56:44.418Z,41.55
2022-12-18T10:59:16.045Z,34.90
2022-12-18T11:01:49.994Z,35.13
2022-12-18T11:04:23.800Z,32.33
2022-12-18T11:07:06.418Z,37.45
2022-12-18T11:09:41.317Z,40.20
2022-12-18T11:12:12.088Z,36.88
2022-12-18T11:14:46.840Z,31.33
2022-12-18T11:17:25.867Z,34.28
2022-12-18T11:20:34.495Z,32.38
2022-12-18T11:23:08.598Z,35.15
2022-12-18T11:25:39.194Z,33.50
2022-12-18T11:31:14.889Z,35.28
2022-12-18T11:34:11.948Z,38.38
2022-12-18T11:36:49.650Z,39.33
2022-12-18T11:39:19.757Z,37.63
2022-12-18T11:44:43.604Z,43.00
2022-12-18T11:47:16.678Z,47.70
2022-12-18T11:49:48.830Z,37.75
2022-12-18T11:52:22.360Z,34.58
2022-12-18T11:54:54.148Z,44.53
2022-12-18T11:57:50.136Z,41.33
2022-12-18T12:00:24.945Z,38.78
2022-12-18T12:03:17.633Z,42.10
2022-12-18T12:06:07.501Z,40.50
2022-12-18T12:09:01.984Z,45.33
2022-12-18T12:11:53.417Z,39.20
2022-12-18T12:14:56.473Z,39.97
2022-12-18T12:17:28.213Z,42.00
2022-12-18T12:20:17.794Z,43.33
2022-12-18T12:23:30.406Z,40.67
2022-12-18T12:26:12.634Z,38.17
2022-12-18T12:29:21.482Z,38.00
2022-12-18T12:32:08.728Z,40.70
2022-12-18T12:35:07.784Z,35.38
2022-12-18T12:38:14.486Z,36.33
2022-12-18T12:40:55.374Z,37.90
2022-12-18T12:43:51.117Z,41.05
2022-12-18T12:46:24.796Z,42.72
2022-12-18T12:49:14.722Z,45.45
2022-12-18T12:51:46.923Z,39.17
2022-12-18T12:54:23.131Z,41.22
2022-12-18T12:57:18.155Z,40.78
2022-12-18T12:59:49.424Z,41.67
2022-12-18T13:02:45.420Z,37.17
2022-12-18T13:05:50.784Z,40.13
2022-12-18T13:08:44.602Z,40.40
2022-12-18T13:11:57.964Z,40.90
2022-12-18T13:14:32.138Z,41.28
2022-12-18T13:17:22.098Z,36.22
2022-12-18T13:20:11.051Z,41.13
2022-12-18T13:22:43.295Z,36.85
2022-12-18T13:25:35.403Z,38.33
2022-12-18T13:28:10.028Z,35.15
2022-12-18T13:41:21.567Z,34.60
2022-12-18T13:45:25.323Z,31.13
2022-12-18T13:48:39.788Z,31.73
2022-12-18T13:51:29.645Z,32.08
2022-12-18T13:55:17.751Z,33.35
2022-12-18T14:22:34.921Z,27.27
2022-12-18T14:25:18.173Z,27.33
2022-12-18T14:28:56.960Z,30.90
2022-12-18T14:36:22.813Z,35.33
2022-12-18T14:39:26.828Z,27.27
2022-12-18T14:42:10.879Z,28.90
2022-12-18T14:45:43.419Z,30.38
2022-12-18T14:48:53.315Z,31.30
2022-12-18T14:51:36.072Z,32.05
2022-12-18T14:54:52.247Z,30.17
2022-12-18T14:58:11.705Z,27.52
2022-12-18T15:01:24.187Z,28.88
2022-12-18T15:04:59.801Z,30.45
2022-12-18T15:11:50.559Z,29.33
2022-12-18T15:14:45.750Z,22.50
2022-12-18T15:21:03.328Z,27.95
2022-12-18T15:23:39.807Z,26.90
2022-12-18T15:26:31.112Z,28.08
2022-12-18T15:29:24.364Z,25.77
2022-12-18T15:32:06.369Z,27.23
2022-12-18T15:34:43.570Z,25.02
2022-12-18T15:37:12.962Z,26.83
2022-12-18T15:39:43.109Z,27.08
2022-12-18T15:42:39.506Z,28.77
2022-12-18T15:45:39.595Z,25.65
2022-12-18T15:48:33.444Z,25.60
2022-12-18T15:51:44.676Z,23.15
2022-12-18T15:55:15.117Z,29.08
2022-12-18T15:57:57.772Z,24.30
2022-12-18T16:01:05.466Z,23.42
2022-12-18T16:04:38.320Z,25.10
2022-12-18T16:07:15.301Z,20.35
2022-12-18T16:09:53.692Z,17.75
2022-12-18T16:13:02.242Z,22.98
2022-12-18T16:15:53.529Z,21.08
2022-12-18T16:38:42.411Z,14.38
2022-12-18T17:05:02.571Z,11.50
2022-12-18T17:14:19.518Z,11.70
2022-12-18T17:17:21.499Z,12.30
2022-12-18T17:47:10.451Z,10.85
2022-12-18T17:50:12.135Z,12.30
2022-12-18T17:52:53.468Z,12.73
2022-12-18T17:56:00.967Z,12.40
2022-12-18T17:59:07.855Z,10.93
2022-12-18T18:09:38.750Z,9.68
2022-12-18T18:18:56.538Z,9.52
2022-12-18T18:25:36.783Z,10.27
2022-12-18T18:38:42.115Z,9.27
2022-12-18T18:49:31.758Z,10.98
2022-12-18T18:54:00.455Z,9.57
2022-12-18T19:00:08.786Z,12.47
2022-12-18T19:14:20.627Z,13.35
2022-12-18T19:19:59.186Z,11.65
2022-12-18T19:23:25.912Z,13.35
2022-12-18T19:27:38.919Z,10.95
2022-12-18T19:34:35.757Z,13.77
2022-12-18T19:37:10.960Z,12.65
2022-12-18T19:39:42.972Z,13.43
2022-12-18T19:42:13.775Z,12.60
2022-12-18T19:45:08.700Z,9.65
2022-12-18T19:47:50.120Z,11.35
2022-12-18T19:50:24.674Z,10.73
2022-12-18T19:52:55.247Z,13.55
2022-12-18T19:55:32.864Z,13.13
2022-12-18T19:58:02.936Z,11.35
2022-12-18T20:00:30.621Z,12.35
2022-12-18T20:03:07.608Z,18.83
2022-12-18T20:05:43.549Z,13.27
2022-12-18T20:10:53.662Z,12.85
2022-12-18T20:13:35.081Z,11.63
2022-12-18T20:16:06.832Z,9.73
2022-12-18T20:18:35.430Z,10.98
2022-12-18T20:21:03.553Z,13.65
2022-12-18T20:23:35.314Z,11.02
2022-12-18T20:26:04.947Z,13.77
2022-12-18T20:31:06.858Z,14.05
2022-12-18T20:33:36.801Z,14.30
2022-12-18T20:36:20.165Z,13.13
2022-12-18T20:38:54.717Z,13.73
2022-12-18T20:41:26.296Z,13.35
2022-12-18T20:43:58.786Z,11.10
2022-12-18T20:46:26.522Z,11.70
2022-12-18T20:49:13.581Z,14.32
2022-12-18T20:51:44.192Z,14.80
2022-12-18T20:54:14.743Z,9.45
2022-12-18T20:56:42.687Z,8.40
2022-12-18T20:59:11.892Z,11.93
2022-12-18T21:02:00.898Z,14.63
2022-12-18T21:04:29.300Z,13.35
2022-12-18T21:07:04.876Z,10.65
2022-12-18T21:09:42.634Z,9.07
2022-12-18T21:12:34.868Z,7.95
2022-12-18T21:15:22.822Z,9.95
2022-12-18T21:17:59.380Z,9.05
2022-12-18T21:20:27.301Z,8.25
2022-12-18T21:23:01.382Z,6.22
2022-12-18T21:25:45.599Z,7.97
2022-12-18T21:28:21.698Z,10.68
2022-12-18T21:30:52.665Z,7.00
2022-12-18T21:33:24.224Z,9.75
2022-12-18T21:36:12.465Z,6.18
2022-12-18T21:38:40.616Z,7.78
2022-12-18T21:41:28.988Z,10.25
2022-12-18T21:44:07.984Z,9.25
2022-12-18T21:46:39.328Z,14.45
2022-12-18T21:49:11.954Z,9.88
2022-12-18T21:51:40.238Z,8.75
2022-12-18T21:54:12.433Z,8.85
2022-12-18T21:56:58.987Z,7.97
2022-12-18T21:59:35.282Z,6.03
2022-12-18T22:02:15.784Z,4.47
2022-12-18T22:04:53.209Z,6.82
2022-12-18T22:07:39.877Z,7.35
2022-12-18T22:12:54.830Z,5.43
2022-12-18T22:19:27.385Z,3.72
2022-12-18T22:24:29.449Z,5.30
2022-12-18T22:27:04.498Z,5.43
2022-12-18T22:30:09.510Z,5.25
2022-12-18T22:32:51.315Z,4.18
2022-12-18T22:35:35.823Z,5.88
2022-12-18T22:38:15.412Z,4.22
2022-12-18T22:40:55.116Z,4.80
2022-12-18T22:46:32.002Z,3.40
2022-12-18T22:49:03.211Z,3.90
2022-12-18T22:51:33.963Z,5.75
2022-12-18T22:54:10.873Z,2.63
2022-12-18T22:56:46.262Z,3.05
2022-12-18T22:59:21.865Z,3.72
2022-12-18T23:01:59.937Z,7.70
2022-12-18T23:04:36.290Z,10.70
2022-12-18T23:07:16.799Z,8.68
2022-12-18T23:09:50.802Z,8.32
2022-12-18T23:12:28.202Z,5.45
2022-12-18T23:14:56.335Z,6.60
2022-12-18T23:17:24.203Z,7.18
2022-12-18T23:20:00.990Z,5.57
2022-12-18T23:22:30.935Z,7.03
2022-12-18T23:25:08.190Z,11.65
2022-12-18T23:27:47.008Z,7.68
2022-12-18T23:30:17.577Z,8.23
2022-12-18T23:32:48.425Z,10.48
2022-12-18T23:35:17.360Z,10.73
2022-12-18T23:38:00.949Z,9.73
2022-12-18T23:40:38.176Z,10.93
2022-12-18T23:43:08.525Z,9.77
2022-12-18T23:45:39.436Z,2.95
2022-12-18T23:48:07.283Z,5.75
2022-12-18T23:50:37.696Z,6.30
2022-12-18T23:53:05.883Z,3.67
2022-12-18T23:55:45.194Z,5.32
2022-12-18T23:58:19.348Z,5.43
